createdAt,value
2018-05-18T00:01:15.454Z,68.70
2018-05-18T00:03:43.718Z,68.90
2018-05-18T00:06:11.993Z,68.80
2018-05-18T00:08:40.271Z,69.10
2018-05-18T00:11:08.542Z,69.10
2018-05-18T00:13:36.843Z,68.80
2018-05-18T00:16:04.360Z,68.80
2018-05-18T00:18:31.957Z,68.40
2018-05-18T00:20:59.471Z,68.60
2018-05-18T00:23:27.061Z,68.20
2018-05-18T00:25:54.488Z,68.30
2018-05-18T00:28:22.023Z,68.70
2018-05-18T00:30:49.550Z,68.80
2018-05-18T00:33:17.218Z,68.70
2018-05-18T00:35:44.787Z,68.60
2018-05-18T00:38:12.278Z,68.40
2018-05-18T00:40:39.878Z,68.10
2018-05-18T00:43:08.167Z,68.30
2018-05-18T00:45:35.675Z,68.30
2018-05-18T00:48:03.183Z,68.60
2018-05-18T00:50:30.688Z,68.50
2018-05-18T00:52:58.183Z,69.20
2018-05-18T00:55:38.306Z,69.50
2018-05-18T00:58:05.815Z,69.40
2018-05-18T01:00:33.302Z,69.00
2018-05-18T01:03:00.807Z,68.80
2018-05-18T01:05:29.080Z,68.70
2018-05-18T01:07:57.355Z,68.40
2018-05-18T01:10:25.610Z,68.10
2018-05-18T01:12:53.114Z,67.90
2018-05-18T01:15:20.666Z,67.80
2018-05-18T01:17:48.175Z,68.30
2018-05-18T01:20:15.667Z,68.30
2018-05-18T01:22:43.944Z,67.90
2018-05-18T01:25:12.219Z,67.90
2018-05-18T01:27:40.498Z,67.90
2018-05-18T01:30:08.767Z,67.90
2018-05-18T01:32:36.275Z,67.80
2018-05-18T01:35:03.771Z,67.80
2018-05-18T01:37:31.368Z,68.10
2018-05-18T01:39:58.863Z,68.10
2018-05-18T01:42:26.355Z,68.40
2018-05-18T01:44:53.884Z,68.40
2018-05-18T01:47:21.387Z,68.30
2018-05-18T01:49:49.651Z,68.10
2018-05-18T01:52:17.930Z,68.40
2018-05-18T01:54:46.217Z,68.60
2018-05-18T01:57:14.472Z,68.40
2018-05-18T01:59:42.763Z,68.30
2018-05-18T02:02:11.024Z,68.30
2018-05-18T02:04:38.558Z,68.30
2018-05-18T02:07:06.058Z,67.90
2018-05-18T02:09:34.323Z,68.60
2018-05-18T02:12:02.602Z,68.70
2018-05-18T02:14:30.912Z,69.00
2018-05-18T02:16:58.418Z,68.90
2018-05-18T02:19:25.944Z,68.80
2018-05-18T02:21:53.442Z,68.90
2018-05-18T02:24:20.949Z,68.60
2018-05-18T02:26:48.455Z,69.10
2018-05-18T02:29:16.762Z,68.80
2018-05-18T02:31:45.042Z,68.40
2018-05-18T02:34:12.581Z,68.40
2018-05-18T02:36:40.061Z,68.10
2018-05-18T02:39:07.568Z,68.10
2018-05-18T02:41:35.080Z,68.20
2018-05-18T02:44:02.579Z,68.30
2018-05-18T02:46:30.095Z,68.50
2018-05-18T02:48:57.599Z,68.80
2018-05-18T02:51:25.095Z,68.80
2018-05-18T02:53:53.363Z,68.70
2018-05-18T02:56:21.622Z,68.40
2018-05-18T02:58:49.118Z,68.30
2018-05-18T03:01:16.627Z,68.70
2018-05-18T03:03:44.114Z,69.00
2018-05-18T03:06:12.387Z,69.00
2018-05-18T03:08:40.667Z,68.90
2018-05-18T03:11:08.955Z,69.30
2018-05-18T03:13:37.218Z,69.00
2018-05-18T03:16:05.487Z,69.20
2018-05-18T03:18:33.078Z,69.10
2018-05-18T03:21:00.608Z,69.20
2018-05-18T03:23:28.094Z,69.20
2018-05-18T03:25:55.605Z,69.40
2018-05-18T03:28:23.111Z,67.60
2018-05-18T03:30:50.623Z,68.20
2018-05-18T03:33:18.131Z,69.00
2018-05-18T03:35:45.642Z,69.10
2018-05-18T03:38:13.918Z,68.40
2018-05-18T03:40:41.419Z,68.50
2018-05-18T03:43:08.916Z,68.50
2018-05-18T03:45:36.541Z,68.50
2018-05-18T03:48:04.043Z,68.50
2018-05-18T03:50:31.627Z,68.60
2018-05-18T03:52:59.908Z,68.50
2018-05-18T03:55:28.192Z,68.20
2018-05-18T03:57:56.470Z,67.80
2018-05-18T04:00:24.734Z,67.60
2018-05-18T04:03:04.987Z,67.40
2018-05-18T04:08:48.767Z,67.50
2018-05-18T04:11:16.257Z,67.70
2018-05-18T04:13:43.779Z,68.10
2018-05-18T04:16:11.283Z,68.30
2018-05-18T04:18:38.786Z,68.10
2018-05-18T04:21:07.043Z,68.40
2018-05-18T04:23:34.567Z,68.40
2018-05-18T04:26:02.094Z,68.40
2018-05-18T04:28:29.591Z,67.80
2018-05-18T04:30:57.100Z,66.70
2018-05-18T04:33:25.358Z,66.70
2018-05-18T04:35:52.855Z,66.70
2018-05-18T04:38:20.362Z,66.80
2018-05-18T04:40:47.863Z,66.60
2018-05-18T04:43:15.397Z,66.20
2018-05-18T04:45:43.662Z,66.00
2018-05-18T04:48:11.170Z,66.00
2018-05-18T04:50:38.679Z,65.80
2018-05-18T04:53:06.941Z,66.70
2018-05-18T04:55:34.551Z,66.20
2018-05-18T04:58:02.051Z,65.80
2018-05-18T05:00:29.539Z,65.40
2018-05-18T05:02:57.823Z,65.00
2018-05-18T05:05:26.120Z,65.10
2018-05-18T05:07:54.379Z,65.20
2018-05-18T05:10:22.654Z,65.40
2018-05-18T05:12:51.002Z,65.60
2018-05-18T05:15:20.015Z,65.90
2018-05-18T05:17:48.306Z,65.00
2018-05-18T05:20:16.582Z,65.20
2018-05-18T05:22:44.849Z,64.90
2018-05-18T05:25:13.127Z,65.10
2018-05-18T05:27:41.400Z,65.30
2018-05-18T05:30:09.662Z,65.40
2018-05-18T05:32:37.174Z,65.40
2018-05-18T05:35:04.679Z,65.50
2018-05-18T05:37:32.187Z,65.50
2018-05-18T05:39:59.698Z,65.10
2018-05-18T05:42:27.222Z,64.30
2018-05-18T05:44:54.714Z,64.20
2018-05-18T05:47:22.311Z,64.50
2018-05-18T05:49:49.819Z,65.10
2018-05-18T05:52:17.322Z,64.50
2018-05-18T05:54:44.831Z,65.00
2018-05-18T05:57:12.328Z,64.80
2018-05-18T05:59:39.839Z,64.30
2018-05-18T06:02:07.339Z,64.40
2018-05-18T06:04:35.631Z,63.80
2018-05-18T06:07:03.131Z,63.80
2018-05-18T06:09:30.630Z,63.60
2018-05-18T06:11:58.886Z,61.90
2018-05-18T06:14:26.406Z,61.90
2018-05-18T06:16:53.904Z,62.20
2018-05-18T06:19:21.414Z,61.80
2018-05-18T06:21:48.959Z,61.20
2018-05-18T06:24:16.487Z,61.30
2018-05-18T06:26:43.969Z,60.80
2018-05-18T06:29:11.535Z,60.10
2018-05-18T06:31:39.035Z,60.40
2018-05-18T06:34:06.532Z,59.70
2018-05-18T06:36:34.827Z,59.20
2018-05-18T06:39:02.335Z,59.20
2018-05-18T06:41:29.824Z,58.40
2018-05-18T06:43:58.095Z,58.00
2018-05-18T06:46:58.850Z,57.60
2018-05-18T06:49:26.349Z,57.50
2018-05-18T06:51:53.851Z,57.30
2018-05-18T06:54:22.130Z,57.40
2018-05-18T06:56:49.630Z,57.30
2018-05-18T06:59:17.139Z,57.00
2018-05-18T07:01:45.429Z,57.00
2018-05-18T07:04:12.931Z,56.90
2018-05-18T07:06:40.434Z,56.10
2018-05-18T07:09:08.690Z,55.40
2018-05-18T07:11:36.202Z,55.40
2018-05-18T07:14:03.731Z,54.80
2018-05-18T07:16:31.396Z,55.10
2018-05-18T07:18:58.810Z,54.90
2018-05-18T07:21:26.411Z,55.10
2018-05-18T07:23:53.975Z,54.90
2018-05-18T07:26:21.466Z,53.50
2018-05-18T07:28:48.998Z,54.00
2018-05-18T07:31:16.502Z,54.00
2018-05-18T07:33:44.107Z,54.50
2018-05-18T07:36:11.749Z,54.40
2018-05-18T07:38:39.222Z,54.10
2018-05-18T07:41:06.782Z,54.60
2018-05-18T07:43:35.055Z,55.50
2018-05-18T07:46:03.329Z,55.50
2018-05-18T07:48:31.606Z,55.20
2018-05-18T07:50:59.998Z,54.80
2018-05-18T07:53:27.564Z,54.80
2018-05-18T07:55:55.119Z,54.50
2018-05-18T07:58:22.618Z,54.80
2018-05-18T08:00:50.122Z,54.10
2018-05-18T08:03:18.391Z,53.60
2018-05-18T08:05:46.647Z,53.60
2018-05-18T08:08:14.170Z,53.50
2018-05-18T08:10:41.699Z,53.90
2018-05-18T08:13:09.195Z,53.90
2018-05-18T08:15:36.706Z,54.90
2018-05-18T08:18:04.971Z,54.30
2018-05-18T08:20:33.365Z,53.20
2018-05-18T08:23:00.948Z,53.20
2018-05-18T08:25:28.485Z,52.20
2018-05-18T08:27:56.850Z,52.50
2018-05-18T08:30:25.115Z,52.40
2018-05-18T08:32:53.414Z,52.40
2018-05-18T08:35:20.975Z,51.80
2018-05-18T08:37:49.251Z,52.00
2018-05-18T08:40:16.746Z,52.00
2018-05-18T08:42:44.255Z,52.00
2018-05-18T08:45:12.516Z,52.80
2018-05-18T08:47:40.102Z,52.80
2018-05-18T08:50:08.350Z,52.00
2018-05-18T08:52:35.879Z,51.90
2018-05-18T08:55:03.385Z,51.00
2018-05-18T08:57:31.643Z,51.20
2018-05-18T08:59:59.163Z,51.10
2018-05-18T09:02:26.650Z,51.80
2018-05-18T09:04:54.170Z,52.60
2018-05-18T09:07:21.668Z,51.90
2018-05-18T09:09:49.281Z,51.20
2018-05-18T09:12:16.777Z,50.70
2018-05-18T09:14:44.396Z,50.90
2018-05-18T09:17:12.034Z,51.20
2018-05-18T09:19:40.299Z,51.10
2018-05-18T09:22:08.558Z,49.20
2018-05-18T09:24:36.048Z,49.20
2018-05-18T09:27:03.610Z,49.10
2018-05-18T09:29:31.116Z,49.10
2018-05-18T09:31:58.722Z,48.60
2018-05-18T09:34:26.992Z,48.40
2018-05-18T09:36:55.256Z,48.90
2018-05-18T09:39:22.755Z,48.90
2018-05-18T09:41:50.290Z,48.30
2018-05-18T09:44:18.544Z,50.50
2018-05-18T09:46:46.140Z,50.50
2018-05-18T09:49:13.687Z,51.40
2018-05-18T09:51:41.963Z,51.60
2018-05-18T09:54:10.331Z,51.90
2018-05-18T09:56:38.520Z,51.80
2018-05-18T09:59:06.075Z,51.80
2018-05-18T10:01:34.331Z,49.50
2018-05-18T10:04:01.933Z,49.50
2018-05-18T10:06:29.431Z,49.60
2018-05-18T10:08:56.947Z,49.60
2018-05-18T10:11:24.491Z,49.90
2018-05-18T10:13:52.002Z,50.10
2018-05-18T10:16:19.603Z,50.30
2018-05-18T10:18:47.868Z,49.30
2018-05-18T10:21:16.130Z,48.90
2018-05-18T10:23:44.439Z,49.70
2018-05-18T10:26:11.947Z,49.60
2018-05-18T10:28:39.452Z,50.60
2018-05-18T10:31:07.006Z,49.60
2018-05-18T10:33:35.282Z,49.30
2018-05-18T10:36:03.534Z,49.30
2018-05-18T10:38:31.041Z,49.30
2018-05-18T10:40:58.649Z,49.50
2018-05-18T10:43:26.243Z,50.10
2018-05-18T10:45:53.794Z,50.00
2018-05-18T10:48:22.075Z,48.80
2018-05-18T10:50:49.590Z,48.80
2018-05-18T10:53:17.086Z,47.70
2018-05-18T10:55:45.371Z,48.00
2018-05-18T10:58:12.858Z,48.00
2018-05-18T11:00:40.379Z,48.70
2018-05-18T11:03:08.673Z,48.10
2018-05-18T11:05:36.168Z,48.10
2018-05-18T11:08:03.790Z,48.10
2018-05-18T11:10:31.358Z,49.40
2018-05-18T11:12:58.850Z,49.40
2018-05-18T11:15:26.350Z,48.50
2018-05-18T11:17:54.601Z,49.60
2018-05-18T11:20:22.190Z,49.60
2018-05-18T11:22:49.702Z,49.90
2018-05-18T11:25:17.199Z,49.90
2018-05-18T11:27:45.451Z,48.90
2018-05-18T11:30:13.041Z,48.90
2018-05-18T11:32:40.543Z,49.20
2018-05-18T11:35:08.042Z,49.00
2018-05-18T11:37:36.327Z,48.70
2018-05-18T11:40:04.607Z,48.70
2018-05-18T11:42:32.880Z,48.70
2018-05-18T11:45:01.235Z,48.80
2018-05-18T11:47:28.816Z,48.80
2018-05-18T11:49:57.095Z,48.40
2018-05-18T11:52:25.358Z,47.80
2018-05-18T11:54:53.611Z,47.30
2018-05-18T11:57:21.206Z,47.30
2018-05-18T11:59:49.468Z,48.40
2018-05-18T12:02:17.785Z,47.30
2018-05-18T12:04:46.011Z,47.00
2018-05-18T12:07:13.594Z,46.90
2018-05-18T12:09:41.850Z,47.30
2018-05-18T12:12:09.438Z,47.30
2018-05-18T12:14:36.939Z,47.50
2018-05-18T12:17:04.431Z,46.80
2018-05-18T12:19:32.722Z,48.40
2018-05-18T12:22:00.993Z,48.90
2018-05-18T12:24:29.385Z,48.50
2018-05-18T12:26:56.946Z,48.50
2018-05-18T12:29:24.494Z,48.90
2018-05-18T12:31:52.763Z,49.30
2018-05-18T12:34:21.032Z,49.60
2018-05-18T12:36:49.326Z,49.50
2018-05-18T12:39:16.819Z,49.40
2018-05-18T12:41:44.311Z,49.40
2018-05-18T12:44:11.796Z,49.20
2018-05-18T12:46:40.063Z,47.80
2018-05-18T12:49:08.349Z,48.20
2018-05-18T12:51:36.603Z,48.20
2018-05-18T12:54:04.967Z,48.90
2018-05-18T12:56:32.471Z,48.40
2018-05-18T12:58:59.971Z,48.00
2018-05-18T13:01:27.471Z,48.40
2018-05-18T13:03:55.750Z,48.90
2018-05-18T13:06:24.023Z,48.80
2018-05-18T13:08:52.292Z,48.70
2018-05-18T13:11:20.582Z,49.20
2018-05-18T13:13:48.835Z,48.80
2018-05-18T13:16:17.135Z,49.30
2018-05-18T13:18:45.399Z,49.20
2018-05-18T13:21:13.660Z,48.80
2018-05-18T13:23:41.166Z,48.80
2018-05-18T13:26:08.663Z,49.40
2018-05-18T13:28:36.162Z,48.60
2018-05-18T13:31:03.670Z,48.40
2018-05-18T13:33:31.159Z,49.30
2018-05-18T13:35:59.459Z,47.60
2018-05-18T13:38:26.963Z,47.60
2018-05-18T13:40:54.467Z,46.50
2018-05-18T13:43:22.743Z,45.70
2018-05-18T13:45:50.252Z,45.70
2018-05-18T13:48:17.763Z,46.10
2018-05-18T13:50:45.286Z,45.70
2018-05-18T13:53:12.878Z,45.80
2018-05-18T13:55:40.378Z,45.70
2018-05-18T13:58:07.894Z,46.60
2018-05-18T14:00:36.178Z,48.10
2018-05-18T14:03:03.782Z,48.10
2018-05-18T14:05:31.278Z,46.70
2018-05-18T14:07:59.548Z,47.00
2018-05-18T14:10:27.815Z,46.30
2018-05-18T14:12:55.327Z,46.30
2018-05-18T14:15:22.958Z,46.00
2018-05-18T14:17:51.231Z,47.20
2018-05-18T14:20:18.792Z,47.20
2018-05-18T14:22:47.047Z,46.70
2018-05-18T14:25:15.347Z,47.10
2018-05-18T14:27:43.598Z,46.60
2018-05-18T14:30:11.135Z,46.50
2018-05-18T14:32:38.630Z,46.00
2018-05-18T14:35:06.919Z,46.90
2018-05-18T14:37:34.423Z,46.90
2018-05-18T14:40:01.926Z,46.40
2018-05-18T14:42:29.543Z,46.60
2018-05-18T14:44:57.031Z,47.10
2018-05-18T14:47:25.300Z,46.90
2018-05-18T14:49:53.555Z,47.10
2018-05-18T14:52:21.074Z,47.00
2018-05-18T14:54:48.615Z,47.00
2018-05-18T14:57:16.890Z,47.10
2018-05-18T14:59:45.147Z,46.70
2018-05-18T15:02:13.419Z,47.50
2018-05-18T15:04:40.923Z,46.80
2018-05-18T15:07:08.455Z,47.00
2018-05-18T15:09:36.718Z,45.70
2018-05-18T15:12:05.011Z,45.90
2018-05-18T15:14:33.279Z,46.20
2018-05-18T15:17:01.744Z,46.40
2018-05-18T15:19:29.089Z,46.40
2018-05-18T15:21:56.680Z,46.60
2018-05-18T15:24:24.941Z,47.00
2018-05-18T15:26:53.226Z,47.40
2018-05-18T15:29:21.778Z,47.60
2018-05-18T15:31:49.288Z,47.60
2018-05-18T15:34:16.839Z,46.90
2018-05-18T15:36:44.390Z,47.00
2018-05-18T15:39:12.671Z,47.50
2018-05-18T15:41:40.934Z,47.90
2018-05-18T15:44:09.205Z,48.60
2018-05-18T15:46:37.462Z,48.10
2018-05-18T15:49:04.955Z,48.10
2018-05-18T15:51:32.458Z,48.50
2018-05-18T15:54:00.070Z,49.10
2018-05-18T15:56:28.446Z,48.80
2018-05-18T15:58:56.730Z,48.30
2018-05-18T16:01:24.286Z,48.20
2018-05-18T16:04:56.366Z,48.20
2018-05-18T16:07:23.930Z,48.40
2018-05-18T16:09:51.419Z,48.90
2018-05-18T16:12:18.922Z,48.60
2018-05-18T16:14:47.183Z,48.70
2018-05-18T16:17:14.696Z,48.70
2018-05-18T16:19:42.227Z,48.60
2018-05-18T16:22:09.735Z,48.60
2018-05-18T16:24:37.327Z,47.70
2018-05-18T16:27:05.587Z,47.70
2018-05-18T16:29:33.185Z,47.70
2018-05-18T16:32:00.739Z,48.30
2018-05-18T16:34:28.245Z,48.60
2018-05-18T16:36:55.772Z,48.90
2018-05-18T16:39:23.283Z,49.20
2018-05-18T16:41:50.785Z,49.40
2018-05-18T16:44:18.293Z,49.40
2018-05-18T16:46:45.795Z,50.00
2018-05-18T16:49:13.339Z,50.00
2018-05-18T16:51:41.601Z,50.20
2018-05-18T16:54:09.898Z,51.00
2018-05-18T16:56:38.166Z,50.70
2018-05-18T16:59:06.429Z,50.50
2018-05-18T17:01:33.943Z,50.50
2018-05-18T17:04:01.436Z,51.20
2018-05-18T17:06:28.981Z,50.80
2018-05-18T17:08:56.468Z,50.90
2018-05-18T17:11:24.734Z,51.70
2018-05-18T17:13:52.233Z,51.10
2018-05-18T17:16:19.748Z,51.40
2018-05-18T17:18:47.246Z,51.40
2018-05-18T17:21:14.786Z,51.60
2018-05-18T17:23:43.078Z,51.40
2018-05-18T17:26:10.634Z,51.30
2018-05-18T17:28:38.138Z,51.60
2018-05-18T17:31:05.643Z,52.10
2018-05-18T17:33:33.891Z,52.20
2018-05-18T17:36:01.405Z,52.10
2018-05-18T17:38:28.903Z,52.40
2018-05-18T17:40:56.414Z,51.90
2018-05-18T17:43:23.908Z,51.90
2018-05-18T17:45:51.507Z,52.20
2018-05-18T17:48:19.791Z,53.00
2018-05-18T17:50:47.307Z,53.00
2018-05-18T17:53:14.810Z,53.00
2018-05-18T17:55:42.303Z,52.60
2018-05-18T17:58:09.802Z,52.30
2018-05-18T18:00:38.091Z,52.30
2018-05-18T18:03:06.347Z,52.40
2018-05-18T18:05:34.034Z,52.30
2018-05-18T18:08:01.591Z,52.80
2018-05-18T18:10:29.151Z,53.10
2018-05-18T18:12:56.642Z,53.10
2018-05-18T18:15:24.146Z,53.30
2018-05-18T18:17:52.428Z,54.20
2018-05-18T18:20:20.729Z,53.60
2018-05-18T18:22:48.231Z,53.60
2018-05-18T18:25:15.719Z,53.80
2018-05-18T18:27:44.012Z,53.90
2018-05-18T18:30:12.266Z,54.00
2018-05-18T18:32:39.804Z,53.90
2018-05-18T18:35:07.307Z,53.50
2018-05-18T18:37:34.804Z,54.20
2018-05-18T18:40:02.312Z,54.20
2018-05-18T18:42:30.580Z,54.40
2018-05-18T18:44:58.867Z,55.00
2018-05-18T18:47:27.254Z,55.20
2018-05-18T18:49:54.755Z,55.10
2018-05-18T18:52:22.259Z,55.20
2018-05-18T18:54:50.563Z,56.00
2018-05-18T18:57:18.102Z,55.90
2018-05-18T18:59:45.667Z,56.10
2018-05-18T19:02:13.219Z,56.20
2018-05-18T19:04:40.715Z,56.50
2018-05-18T19:07:08.265Z,56.80
2018-05-18T19:09:35.792Z,57.00
2018-05-18T19:12:03.314Z,57.10
2018-05-18T19:14:30.922Z,57.40
2018-05-18T19:16:58.451Z,57.50
2018-05-18T19:19:25.962Z,58.40
2018-05-18T19:21:53.526Z,57.90
2018-05-18T19:24:21.114Z,58.20
2018-05-18T19:26:48.614Z,58.20
2018-05-18T19:29:16.180Z,58.40
2018-05-18T19:31:43.682Z,58.70
2018-05-18T19:34:11.278Z,59.00
2018-05-18T19:36:39.535Z,59.40
2018-05-18T19:39:07.790Z,59.30
2018-05-18T19:41:35.411Z,59.40
2018-05-18T19:44:02.958Z,59.70
2018-05-18T19:46:30.516Z,60.10
2018-05-18T19:48:58.774Z,60.30
2018-05-18T19:51:27.077Z,61.10
2018-05-18T19:53:54.635Z,60.30
2018-05-18T19:56:22.311Z,60.90
2018-05-18T19:58:49.847Z,61.10
2018-05-18T20:01:18.107Z,61.30
2018-05-18T20:03:46.391Z,61.60
2018-05-18T20:06:14.642Z,62.00
2018-05-18T20:08:42.167Z,61.90
2018-05-18T20:11:09.692Z,62.10
2018-05-18T20:13:37.215Z,62.30
2018-05-18T20:16:04.808Z,62.50
2018-05-18T20:18:33.197Z,62.40
2018-05-18T20:21:00.688Z,62.30
2018-05-18T20:23:28.203Z,62.30
2018-05-18T20:25:56.454Z,62.90
2018-05-18T20:28:24.036Z,62.90
2018-05-18T20:30:52.294Z,63.90
2018-05-18T20:33:19.874Z,63.90
2018-05-18T20:35:48.250Z,63.80
2018-05-18T20:38:16.546Z,63.30
2018-05-18T20:40:44.058Z,63.30
2018-05-18T20:43:12.344Z,63.30
2018-05-18T20:45:40.606Z,64.10
2018-05-18T20:48:08.219Z,63.40
2018-05-18T20:50:35.759Z,63.70
2018-05-18T20:53:03.285Z,64.00
2018-05-18T20:55:30.786Z,63.90
2018-05-18T20:57:58.294Z,63.90
2018-05-18T21:00:25.891Z,63.70
2018-05-18T21:02:54.142Z,64.10
2018-05-18T21:05:22.430Z,63.80
2018-05-18T21:07:50.705Z,63.60
2018-05-18T21:10:18.992Z,63.50
2018-05-18T21:12:47.314Z,63.70
2018-05-18T21:15:14.826Z,63.70
2018-05-18T21:17:43.101Z,64.30
2018-05-18T21:20:11.383Z,65.00
2018-05-18T21:22:39.663Z,65.40
2018-05-18T21:25:07.196Z,65.40
2018-05-18T21:27:34.778Z,65.60
2018-05-18T21:30:03.055Z,65.40
2018-05-18T21:32:31.343Z,65.60
2018-05-18T21:34:58.899Z,65.50
2018-05-18T21:37:26.412Z,65.60
2018-05-18T21:39:54.007Z,65.80
2018-05-18T21:42:21.570Z,66.10
2018-05-18T21:44:49.066Z,66.60
2018-05-18T21:47:16.578Z,67.00
2018-05-18T21:49:44.834Z,66.80
2018-05-18T21:52:12.409Z,67.50
2018-05-18T21:54:40.693Z,66.90
2018-05-18T21:57:08.998Z,67.50
2018-05-18T21:59:36.505Z,66.80
2018-05-18T22:02:04.018Z,66.60
2018-05-18T22:04:31.521Z,66.80
2018-05-18T22:06:59.799Z,67.10
2018-05-18T22:09:27.328Z,67.10
2018-05-18T22:11:54.840Z,67.40
2018-05-18T22:14:22.344Z,67.50
2018-05-18T22:16:50.633Z,68.10
2018-05-18T22:19:18.118Z,68.10
2018-05-18T22:21:46.407Z,68.50
2018-05-18T22:24:13.902Z,68.40
2018-05-18T22:26:41.401Z,68.50
2018-05-18T22:29:08.915Z,68.20
2018-05-18T22:31:36.427Z,68.30
2018-05-18T22:34:04.741Z,68.70
2018-05-18T22:36:32.234Z,68.70
2018-05-18T22:39:01.263Z,69.00
2018-05-18T22:41:29.525Z,68.90
2018-05-18T22:43:57.790Z,68.80
2018-05-18T22:46:25.297Z,68.70
2018-05-18T22:48:52.836Z,68.90
2018-05-18T22:51:20.351Z,68.90
2018-05-18T22:53:47.878Z,69.20
2018-05-18T22:56:15.394Z,69.40
2018-05-18T22:58:43.666Z,69.70
2018-05-18T23:01:11.955Z,69.50
2018-05-18T23:03:40.243Z,69.40
2018-05-18T23:06:07.799Z,69.30
2018-05-18T23:08:36.090Z,68.90
2018-05-18T23:11:03.581Z,68.80
2018-05-18T23:13:31.195Z,68.90
2018-05-18T23:15:59.575Z,68.90
2018-05-18T23:18:27.066Z,69.50
2018-05-18T23:20:54.695Z,68.80
2018-05-18T23:23:22.255Z,68.80
2018-05-18T23:25:49.865Z,69.00
2018-05-18T23:28:17.284Z,68.80
2018-05-18T23:32:55.713Z,69.10
2018-05-18T23:35:23.207Z,68.90
2018-05-18T23:37:50.724Z,69.30
2018-05-18T23:40:18.228Z,69.20
2018-05-18T23:42:45.739Z,69.60
2018-05-18T23:45:13.249Z,70.10
2018-05-18T23:47:40.843Z,70.10
2018-05-18T23:50:09.111Z,70.60
2018-05-18T23:52:37.394Z,70.80
2018-05-18T23:55:04.896Z,70.90
2018-05-18T23:57:32.418Z,71.00
2018-05-18T23:59:59.975Z,71.00
